sensor_id;sensor_type;location;lat;lon;timestamp;temperature;humidity
35244;DHT22;37916;52.160;21.066;2023-05-10T00:02:03;6.80;65.70
35244;DHT22;37916;52.160;21.066;2023-05-10T00:12:04;6.90;65.00
35244;DHT22;37916;52.160;21.066;2023-05-10T00:22:05;6.80;65.50
35244;DHT22;37916;52.160;21.066;2023-05-10T00:32:05;6.60;66.10
35244;DHT22;37916;52.160;21.066;2023-05-10T00:42:06;6.50;65.90
35244;DHT22;37916;52.160;21.066;2023-05-10T00:52:06;6.50;65.80
35244;DHT22;37916;52.160;21.066;2023-05-10T01:02:07;6.40;65.70
35244;DHT22;37916;52.160;21.066;2023-05-10T01:12:07;6.20;66.70
35244;DHT22;37916;52.160;21.066;2023-05-10T01:32:16;6.00;66.60
35244;DHT22;37916;52.160;21.066;2023-05-10T01:42:23;6.00;66.60
35244;DHT22;37916;52.160;21.066;2023-05-10T01:52:26;5.90;66.20
35244;DHT22;37916;52.160;21.066;2023-05-10T02:02:32;5.80;66.80
35244;DHT22;37916;52.160;21.066;2023-05-10T02:12:37;5.80;66.60
35244;DHT22;37916;52.160;21.066;2023-05-10T02:22:39;5.50;68.00
35244;DHT22;37916;52.160;21.066;2023-05-10T02:32:40;5.30;69.60
35244;DHT22;37916;52.160;21.066;2023-05-10T02:42:42;5.20;69.60
35244;DHT22;37916;52.160;21.066;2023-05-10T02:52:47;5.20;69.00
35244;DHT22;37916;52.160;21.066;2023-05-10T03:02:49;5.20;68.50
35244;DHT22;37916;52.160;21.066;2023-05-10T03:13:02;5.10;69.20
35244;DHT22;37916;52.160;21.066;2023-05-10T03:23:07;5.10;69.80
35244;DHT22;37916;52.160;21.066;2023-05-10T03:33:10;5.20;69.50
35244;DHT22;37916;52.160;21.066;2023-05-10T03:43:11;5.50;67.70
35244;DHT22;37916;52.160;21.066;2023-05-10T03:53:11;5.70;67.00
35244;DHT22;37916;52.160;21.066;2023-05-10T04:03:12;5.90;65.80
35244;DHT22;37916;52.160;21.066;2023-05-10T04:13:13;6.20;65.10
35244;DHT22;37916;52.160;21.066;2023-05-10T04:23:13;6.50;63.80
35244;DHT22;37916;52.160;21.066;2023-05-10T04:33:15;7.10;62.60
35244;DHT22;37916;52.160;21.066;2023-05-10T04:43:16;7.80;61.60
35244;DHT22;37916;52.160;21.066;2023-05-10T04:53:16;8.80;59.40
35244;DHT22;37916;52.160;21.066;2023-05-10T05:03:17;9.80;55.60
35244;DHT22;37916;52.160;21.066;2023-05-10T05:13:17;10.80;52.80
35244;DHT22;37916;52.160;21.066;2023-05-10T05:23:18;11.80;50.80
35244;DHT22;37916;52.160;21.066;2023-05-10T05:33:20;12.50;48.60
35244;DHT22;37916;52.160;21.066;2023-05-10T05:43:21;13.30;45.80
35244;DHT22;37916;52.160;21.066;2023-05-10T05:53:22;14.10;43.90
35244;DHT22;37916;52.160;21.066;2023-05-10T06:03:23;14.90;40.60
35244;DHT22;37916;52.160;21.066;2023-05-10T06:13:24;16.10;40.50
35244;DHT22;37916;52.160;21.066;2023-05-10T06:23:24;17.30;38.90
35244;DHT22;37916;52.160;21.066;2023-05-10T06:33:25;18.30;35.90
35244;DHT22;37916;52.160;21.066;2023-05-10T06:43:26;20.20;33.50
35244;DHT22;37916;52.160;21.066;2023-05-10T06:53:28;21.40;29.60
35244;DHT22;37916;52.160;21.066;2023-05-10T07:03:29;21.50;29.40
35244;DHT22;37916;52.160;21.066;2023-05-10T07:13:33;23.20;27.40
35244;DHT22;37916;52.160;21.066;2023-05-10T07:23:34;22.90;27.00
35244;DHT22;37916;52.160;21.066;2023-05-10T07:33:34;24.20;27.10
35244;DHT22;37916;52.160;21.066;2023-05-10T07:43:35;23.70;24.60
35244;DHT22;37916;52.160;21.066;2023-05-10T07:53:36;25.00;23.00
35244;DHT22;37916;52.160;21.066;2023-05-10T08:03:36;23.70;22.80
35244;DHT22;37916;52.160;21.066;2023-05-10T08:13:37;24.20;20.60
35244;DHT22;37916;52.160;21.066;2023-05-10T08:23:37;23.10;22.00
35244;DHT22;37916;52.160;21.066;2023-05-10T08:33:38;22.80;22.00
35244;DHT22;37916;52.160;21.066;2023-05-10T08:43:38;22.40;21.80
35244;DHT22;37916;52.160;21.066;2023-05-10T08:53:39;21.60;23.30
35244;DHT22;37916;52.160;21.066;2023-05-10T09:03:39;20.00;24.40
35244;DHT22;37916;52.160;21.066;2023-05-10T09:13:40;18.60;26.90
35244;DHT22;37916;52.160;21.066;2023-05-10T09:23:48;18.20;26.90
35244;DHT22;37916;52.160;21.066;2023-05-10T09:33:50;17.70;28.40
35244;DHT22;37916;52.160;21.066;2023-05-10T09:43:54;17.50;28.80
35244;DHT22;37916;52.160;21.066;2023-05-10T09:54:15;17.30;29.90
35244;DHT22;37916;52.160;21.066;2023-05-10T10:04:16;17.10;30.20
35244;DHT22;37916;52.160;21.066;2023-05-10T10:14:18;16.90;29.50
35244;DHT22;37916;52.160;21.066;2023-05-10T10:24:18;16.70;30.10
35244;DHT22;37916;52.160;21.066;2023-05-10T10:34:29;16.90;31.30
35244;DHT22;37916;52.160;21.066;2023-05-10T10:54:34;16.80;29.10
35244;DHT22;37916;52.160;21.066;2023-05-10T11:04:42;16.80;29.20
35244;DHT22;37916;52.160;21.066;2023-05-10T11:14:43;16.90;29.50
35244;DHT22;37916;52.160;21.066;2023-05-10T11:24:56;16.90;30.00
35244;DHT22;37916;52.160;21.066;2023-05-10T11:34:56;16.90;29.80
35244;DHT22;37916;52.160;21.066;2023-05-10T11:44:57;17.00;31.20
35244;DHT22;37916;52.160;21.066;2023-05-10T11:54:58;17.20;30.70
35244;DHT22;37916;52.160;21.066;2023-05-10T12:04:58;17.20;30.70
35244;DHT22;37916;52.160;21.066;2023-05-10T12:14:59;17.30;30.50
35244;DHT22;37916;52.160;21.066;2023-05-10T12:25:00;17.20;29.80
35244;DHT22;37916;52.160;21.066;2023-05-10T12:35:00;17.20;30.60
35244;DHT22;37916;52.160;21.066;2023-05-10T12:45:04;17.30;30.20
35244;DHT22;37916;52.160;21.066;2023-05-10T12:55:05;17.20;31.10
35244;DHT22;37916;52.160;21.066;2023-05-10T13:05:06;17.40;29.90
35244;DHT22;37916;52.160;21.066;2023-05-10T13:15:07;17.20;30.50
35244;DHT22;37916;52.160;21.066;2023-05-10T13:25:08;17.30;30.80
35244;DHT22;37916;52.160;21.066;2023-05-10T13:35:09;17.30;30.20
35244;DHT22;37916;52.160;21.066;2023-05-10T13:45:10;17.60;31.40
35244;DHT22;37916;52.160;21.066;2023-05-10T13:55:12;17.60;30.70
35244;DHT22;37916;52.160;21.066;2023-05-10T14:05:13;17.50;29.80
35244;DHT22;37916;52.160;21.066;2023-05-10T14:15:18;17.40;29.90
35244;DHT22;37916;52.160;21.066;2023-05-10T14:25:22;17.40;29.50
35244;DHT22;37916;52.160;21.066;2023-05-10T14:35:23;17.40;30.50
35244;DHT22;37916;52.160;21.066;2023-05-10T14:45:24;17.30;30.40
35244;DHT22;37916;52.160;21.066;2023-05-10T14:55:24;17.30;30.10
35244;DHT22;37916;52.160;21.066;2023-05-10T15:05:28;17.40;30.60
35244;DHT22;37916;52.160;21.066;2023-05-10T15:15:28;17.40;30.90
35244;DHT22;37916;52.160;21.066;2023-05-10T15:25:29;17.20;31.20
35244;DHT22;37916;52.160;21.066;2023-05-10T15:35:30;17.20;31.10
35244;DHT22;37916;52.160;21.066;2023-05-10T15:45:31;17.20;30.80
35244;DHT22;37916;52.160;21.066;2023-05-10T15:55:31;17.10;29.60
35244;DHT22;37916;52.160;21.066;2023-05-10T16:05:32;17.00;28.80
35244;DHT22;37916;52.160;21.066;2023-05-10T16:15:34;16.90;28.90
35244;DHT22;37916;52.160;21.066;2023-05-10T16:25:34;16.80;28.70
35244;DHT22;37916;52.160;21.066;2023-05-10T16:35:35;16.60;29.00
35244;DHT22;37916;52.160;21.066;2023-05-10T16:45:36;16.50;29.30
35244;DHT22;37916;52.160;21.066;2023-05-10T16:55:37;16.40;29.50
35244;DHT22;37916;52.160;21.066;2023-05-10T17:05:37;16.20;30.60
35244;DHT22;37916;52.160;21.066;2023-05-10T17:15:38;16.10;30.10
35244;DHT22;37916;52.160;21.066;2023-05-10T17:25:38;15.80;30.50
35244;DHT22;37916;52.160;21.066;2023-05-10T17:35:43;15.60;31.40
35244;DHT22;37916;52.160;21.066;2023-05-10T17:45:46;15.30;32.60
35244;DHT22;37916;52.160;21.066;2023-05-10T17:55:47;15.20;32.50
35244;DHT22;37916;52.160;21.066;2023-05-10T18:05:47;15.00;32.60
35244;DHT22;37916;52.160;21.066;2023-05-10T18:15:48;14.80;33.20
35244;DHT22;37916;52.160;21.066;2023-05-10T18:25:49;14.50;33.90
35244;DHT22;37916;52.160;21.066;2023-05-10T18:35:53;14.30;35.00
35244;DHT22;37916;52.160;21.066;2023-05-10T18:45:54;14.00;35.90
35244;DHT22;37916;52.160;21.066;2023-05-10T18:55:55;13.70;36.80
35244;DHT22;37916;52.160;21.066;2023-05-10T19:05:59;13.50;37.20
35244;DHT22;37916;52.160;21.066;2023-05-10T19:16:10;13.30;37.90
35244;DHT22;37916;52.160;21.066;2023-05-10T19:26:11;13.10;38.80
35244;DHT22;37916;52.160;21.066;2023-05-10T19:36:11;12.80;39.50
35244;DHT22;37916;52.160;21.066;2023-05-10T19:46:12;12.60;40.50
35244;DHT22;37916;52.160;21.066;2023-05-10T19:56:13;12.10;41.80
35244;DHT22;37916;52.160;21.066;2023-05-10T20:06:13;11.90;42.90
35244;DHT22;37916;52.160;21.066;2023-05-10T20:16:14;11.60;43.50
35244;DHT22;37916;52.160;21.066;2023-05-10T20:26:14;11.20;44.80
35244;DHT22;37916;52.160;21.066;2023-05-10T20:36:15;11.10;45.30
35244;DHT22;37916;52.160;21.066;2023-05-10T20:46:16;11.00;45.50
35244;DHT22;37916;52.160;21.066;2023-05-10T20:56:16;10.80;46.80
35244;DHT22;37916;52.160;21.066;2023-05-10T21:06:17;10.60;47.20
35244;DHT22;37916;52.160;21.066;2023-05-10T21:16:18;10.50;47.70
35244;DHT22;37916;52.160;21.066;2023-05-10T21:26:19;10.20;49.00
35244;DHT22;37916;52.160;21.066;2023-05-10T21:36:19;10.00;49.70
35244;DHT22;37916;52.160;21.066;2023-05-10T21:46:20;9.80;50.40
35244;DHT22;37916;52.160;21.066;2023-05-10T21:56:20;9.70;50.90
35244;DHT22;37916;52.160;21.066;2023-05-10T22:06:21;9.60;51.10
35244;DHT22;37916;52.160;21.066;2023-05-10T22:16:22;9.40;51.50
35244;DHT22;37916;52.160;21.066;2023-05-10T22:26:22;9.20;52.10
35244;DHT22;37916;52.160;21.066;2023-05-10T22:36:23;9.10;53.00
35244;DHT22;37916;52.160;21.066;2023-05-10T22:46:23;9.00;53.30
35244;DHT22;37916;52.160;21.066;2023-05-10T22:56:24;8.90;53.70
35244;DHT22;37916;52.160;21.066;2023-05-10T23:06:24;8.80;54.20
35244;DHT22;37916;52.160;21.066;2023-05-10T23:16:27;8.60;54.50
35244;DHT22;37916;52.160;21.066;2023-05-10T23:26:27;8.40;55.30
35244;DHT22;37916;52.160;21.066;2023-05-10T23:36:28;8.30;55.90
35244;DHT22;37916;52.160;21.066;2023-05-10T23:46:30;8.20;56.30
35244;DHT22;37916;52.160;21.066;2023-05-10T23:56:31;8.00;56.70
